Time;durP1;ratioP1;P1;durP2;ratioP2;P2;SDS_P1;SDS_P2;PMS_P1;PMS_P2;Temp;Humidity;BMP_temperature;BMP_pressure;BME280_temperature;BME280_humidity;BME280_pressure;Samples;Min_cycle;Max_cycle;Signal;HPM_P1;HPM_P2
2023/08/10 00:01:08;;;;;;;7.20;5.20;;;12.30;99.90;;;;;;5012562;28;20492;-74
2023/08/10 00:03:35;;;;;;;9.27;5.50;;;12.30;99.90;;;;;;5012612;28;20491;-74
2023/08/10 00:06:02;;;;;;;9.10;5.97;;;12.30;99.90;;;;;;5012494;28;20548;-74
2023/08/10 00:08:29;;;;;;;7.63;5.63;;;12.30;99.90;;;;;;5012108;28;20486;-75
2023/08/10 00:10:56;;;;;;;6.37;5.77;;;12.30;99.90;;;;;;5012260;28;20462;-75
2023/08/10 00:13:24;;;;;;;6.57;5.77;;;12.30;99.90;;;;;;5013533;28;20429;-75
2023/08/10 00:15:51;;;;;;;5.90;5.30;;;12.30;99.90;;;;;;5012071;28;20533;-74
2023/08/10 00:18:17;;;;;;;8.33;6.13;;;12.30;99.90;;;;;;5012043;28;20516;-75
2023/08/10 00:20:44;;;;;;;6.33;5.73;;;12.30;99.90;;;;;;5012180;28;20465;-74
2023/08/10 00:23:12;;;;;;;7.00;5.70;;;12.30;99.90;;;;;;5011689;28;20872;-74
2023/08/10 00:25:38;;;;;;;11.00;5.60;;;12.30;99.90;;;;;;5011615;28;20497;-75
2023/08/10 00:28:05;;;;;;;7.50;5.63;;;12.30;99.90;;;;;;5012809;28;20473;-75
2023/08/10 00:30:34;;;;;;;7.70;5.80;;;12.30;99.90;;;;;;5011490;28;20466;-75
2023/08/10 00:33:00;;;;;;;5.80;5.30;;;12.30;99.90;;;;;;5011844;28;20458;-75
2023/08/10 00:35:27;;;;;;;6.93;5.77;;;12.30;99.90;;;;;;5011302;28;20520;-74
2023/08/10 00:37:54;;;;;;;8.97;6.10;;;12.30;99.90;;;;;;5011967;28;20432;-75
2023/08/10 00:40:20;;;;;;;9.93;5.83;;;12.20;99.90;;;;;;5013885;28;20473;-75
2023/08/10 00:42:47;;;;;;;8.03;5.87;;;12.20;99.90;;;;;;5011883;28;20469;-75
2023/08/10 00:45:14;;;;;;;8.00;6.43;;;12.10;99.90;;;;;;5011494;28;20484;-75
2023/08/10 00:47:42;;;;;;;7.63;5.60;;;12.10;99.90;;;;;;5011835;28;20958;-75
2023/08/10 00:50:10;;;;;;;10.10;5.63;;;12.00;99.90;;;;;;5011770;28;20481;-75
2023/08/10 00:52:37;;;;;;;17.90;6.70;;;12.00;99.90;;;;;;5011964;28;20444;-75
2023/08/10 00:55:04;;;;;;;6.63;5.93;;;12.10;99.90;;;;;;5011347;28;20446;-75
2023/08/10 00:57:31;;;;;;;5.93;5.37;;;12.00;99.90;;;;;;5011369;28;20428;-75
2023/08/10 00:59:58;;;;;;;7.13;5.47;;;12.00;99.90;;;;;;5011091;28;20478;-75
2023/08/10 01:02:25;;;;;;;7.73;5.60;;;12.00;99.90;;;;;;5011607;28;20458;-75
2023/08/10 01:04:53;;;;;;;8.60;5.40;;;12.10;99.90;;;;;;5011616;28;20552;-75
2023/08/10 01:07:26;;;;;;;14.67;5.83;;;12.10;99.90;;;;;;5008572;28;20508;-75
2023/08/10 01:10:00;;;;;;;7.07;5.80;;;12.10;99.90;;;;;;5010830;28;20474;-75
2023/08/10 01:12:35;;;;;;;6.30;5.50;;;12.00;99.90;;;;;;5010207;28;20461;-75
2023/08/10 01:15:10;;;;;;;7.60;6.27;;;12.00;99.90;;;;;;5011983;28;20461;-75
2023/08/10 01:17:44;;;;;;;11.53;6.00;;;12.10;99.90;;;;;;5011396;28;20497;-75
2023/08/10 01:20:14;;;;;;;13.20;6.70;;;12.10;99.90;;;;;;5010766;28;20532;-75
2023/08/10 01:22:51;;;;;;;9.10;5.60;;;12.10;99.90;;;;;;5011066;28;20601;-75
2023/08/10 01:25:20;;;;;;;8.50;7.17;;;12.10;99.90;;;;;;5011144;28;20460;-75
2023/08/10 01:27:47;;;;;;;7.00;6.30;;;12.20;99.90;;;;;;5011066;28;20554;-75
2023/08/10 01:30:15;;;;;;;8.20;5.60;;;12.10;99.90;;;;;;5009834;28;20942;-75
2023/08/10 01:32:42;;;;;;;6.77;6.10;;;12.20;99.90;;;;;;5010980;28;20895;-75
2023/08/10 01:35:10;;;;;;;12.97;6.30;;;12.20;99.90;;;;;;5011106;28;20802;-75
2023/08/10 01:37:37;;;;;;;8.77;6.17;;;12.20;99.90;;;;;;5010858;28;20471;-75
2023/08/10 01:40:07;;;;;;;9.60;6.30;;;12.20;99.90;;;;;;5005066;28;20548;-75
2023/08/10 01:42:35;;;;;;;12.43;6.40;;;12.30;99.90;;;;;;5010773;28;20576;-75
2023/08/10 01:45:04;;;;;;;7.30;6.47;;;12.30;99.90;;;;;;5012041;28;20489;-75
2023/08/10 01:47:37;;;;;;;12.50;5.63;;;12.30;99.90;;;;;;5010203;28;20441;-75
2023/08/10 01:50:07;;;;;;;9.97;7.00;;;12.30;99.90;;;;;;5010360;28;20470;-75
2023/08/10 01:52:37;;;;;;;6.70;6.10;;;12.30;99.90;;;;;;5010985;28;20451;-75
2023/08/10 01:55:05;;;;;;;6.50;5.90;;;12.30;99.90;;;;;;5011163;28;20508;-75
2023/08/10 01:57:32;;;;;;;10.30;6.40;;;12.30;99.90;;;;;;5011238;28;20520;-75
2023/08/10 02:00:00;;;;;;;9.90;6.03;;;12.30;99.90;;;;;;5016705;28;20823;-75
2023/08/10 02:02:27;;;;;;;7.13;6.27;;;12.40;99.90;;;;;;5010184;28;20485;-75
2023/08/10 02:04:53;;;;;;;12.57;6.00;;;12.40;99.90;;;;;;5011014;28;20486;-75
2023/08/10 02:07:20;;;;;;;7.60;6.00;;;12.50;99.90;;;;;;5010544;28;20868;-75
2023/08/10 02:09:47;;;;;;;7.70;5.47;;;12.50;99.90;;;;;;5010350;28;20993;-76
2023/08/10 02:12:13;;;;;;;7.50;5.47;;;12.50;99.90;;;;;;5012175;28;20457;-76
2023/08/10 02:14:40;;;;;;;8.60;6.10;;;12.60;99.90;;;;;;5010280;28;20462;-75
2023/08/10 02:17:08;;;;;;;9.10;5.70;;;12.60;99.90;;;;;;5009926;28;20512;-75
2023/08/10 02:19:35;;;;;;;8.30;6.20;;;12.60;99.90;;;;;;5010522;28;20478;-75
2023/08/10 02:22:01;;;;;;;8.13;5.90;;;12.60;99.90;;;;;;5010596;28;20454;-75
2023/08/10 02:24:28;;;;;;;8.97;5.77;;;12.70;99.90;;;;;;5009781;28;20516;-76
2023/08/10 02:26:55;;;;;;;9.40;5.93;;;12.70;99.90;;;;;;5013946;28;21291;-76
2023/08/10 02:29:21;;;;;;;7.83;6.63;;;12.70;99.90;;;;;;5006369;28;21074;-75
2023/08/10 02:31:48;;;;;;;14.43;5.87;;;12.70;99.90;;;;;;5010639;28;20432;-75
2023/08/10 02:34:16;;;;;;;8.37;6.30;;;12.70;99.90;;;;;;5010473;28;20458;-75
2023/08/10 02:36:43;;;;;;;7.93;6.37;;;12.70;99.90;;;;;;5010259;28;20494;-75
2023/08/10 02:39:09;;;;;;;6.80;6.10;;;12.70;99.90;;;;;;5004729;28;20510;-75
2023/08/10 02:41:36;;;;;;;8.40;6.80;;;12.70;99.90;;;;;;5010463;28;20458;-75
2023/08/10 02:44:03;;;;;;;6.30;5.33;;;12.70;99.90;;;;;;5010302;28;20957;-75
2023/08/10 02:46:29;;;;;;;6.90;5.97;;;12.70;99.90;;;;;;5010196;28;20489;-75
2023/08/10 02:48:56;;;;;;;14.20;6.13;;;12.70;99.90;;;;;;5009705;28;20981;-76
2023/08/10 02:51:24;;;;;;;11.53;6.10;;;12.80;99.90;;;;;;5010780;28;21107;-76
2023/08/10 02:53:51;;;;;;;7.63;6.20;;;12.80;99.90;;;;;;5013004;28;20429;-76
2023/08/10 02:56:17;;;;;;;8.40;6.33;;;12.70;99.90;;;;;;5018556;28;21003;-75
2023/08/10 02:58:44;;;;;;;10.80;5.90;;;12.80;99.90;;;;;;5013444;28;20898;-76
2023/08/10 03:01:11;;;;;;;10.50;6.10;;;12.80;99.90;;;;;;5013186;28;20960;-76
2023/08/10 03:03:38;;;;;;;10.53;5.60;;;12.70;99.90;;;;;;5013635;28;20462;-76
2023/08/10 03:06:04;;;;;;;11.70;6.53;;;12.70;99.90;;;;;;5013714;28;20525;-76
2023/08/10 03:08:32;;;;;;;7.00;6.00;;;12.60;99.90;;;;;;5015344;28;20526;-75
2023/08/10 03:10:59;;;;;;;6.73;5.77;;;12.60;99.90;;;;;;5013657;28;20504;-76
2023/08/10 03:13:26;;;;;;;11.53;5.77;;;12.50;99.90;;;;;;5013668;28;20459;-75
2023/08/10 03:15:55;;;;;;;6.73;6.03;;;12.50;99.90;;;;;;5013268;28;20459;-76
2023/08/10 03:18:21;;;;;;;6.80;6.10;;;12.50;99.90;;;;;;5013309;28;20536;-76
2023/08/10 03:20:48;;;;;;;6.70;5.80;;;12.40;99.90;;;;;;5012846;28;20454;-76
2023/08/10 03:23:15;;;;;;;9.33;5.53;;;12.30;99.90;;;;;;5012796;28;20462;-75
2023/08/10 03:25:43;;;;;;;9.23;6.07;;;12.30;99.90;;;;;;5013381;28;20478;-75
2023/08/10 03:28:09;;;;;;;6.40;5.87;;;12.40;99.90;;;;;;5013187;28;20509;-75
2023/08/10 03:30:37;;;;;;;8.00;5.93;;;12.40;99.90;;;;;;5012423;28;20437;-76
2023/08/10 03:33:04;;;;;;;7.40;6.23;;;12.40;99.90;;;;;;5013145;28;20489;-75
2023/08/10 03:35:31;;;;;;;6.63;5.90;;;12.50;99.90;;;;;;5013217;28;20468;-76
2023/08/10 03:37:58;;;;;;;10.27;5.90;;;12.50;99.90;;;;;;5013464;28;20432;-75
2023/08/10 03:40:25;;;;;;;8.43;6.00;;;12.50;99.90;;;;;;5012598;28;20524;-75
2023/08/10 03:42:53;;;;;;;9.03;6.30;;;12.80;99.90;;;;;;5012703;28;20458;-75
2023/08/10 03:45:19;;;;;;;8.30;5.93;;;12.70;99.90;;;;;;5012530;28;20895;-76
2023/08/10 03:47:46;;;;;;;9.10;6.30;;;12.70;99.90;;;;;;5012402;28;20445;-75
2023/08/10 03:50:13;;;;;;;6.63;5.93;;;12.70;99.90;;;;;;5012786;28;20456;-76
2023/08/10 03:52:39;;;;;;;7.20;5.87;;;12.80;99.90;;;;;;5012619;28;20454;-75
2023/08/10 03:55:07;;;;;;;6.53;5.40;;;12.80;99.90;;;;;;5012608;28;20957;-75
2023/08/10 03:57:33;;;;;;;7.93;5.83;;;12.80;99.90;;;;;;5012220;28;20541;-75
2023/08/10 04:00:03;;;;;;;12.70;6.10;;;12.70;99.90;;;;;;5012341;28;20468;-75
2023/08/10 04:02:29;;;;;;;6.40;5.80;;;12.60;99.90;;;;;;5011990;28;20477;-76
2023/08/10 04:04:56;;;;;;;12.97;5.93;;;12.60;99.90;;;;;;5012708;28;20483;-76
2023/08/10 04:07:23;;;;;;;11.70;6.20;;;12.70;99.90;;;;;;5012819;28;20482;-75
2023/08/10 04:09:49;;;;;;;9.20;5.23;;;12.60;99.90;;;;;;5012094;28;20540;-75
2023/08/10 04:12:17;;;;;;;8.80;6.30;;;12.60;99.90;;;;;;5013462;28;20462;-75
2023/08/10 04:14:44;;;;;;;13.17;6.70;;;12.60;99.90;;;;;;5012184;28;21073;-75
2023/08/10 04:17:12;;;;;;;7.20;6.37;;;12.50;99.90;;;;;;5012387;28;20425;-75
2023/08/10 04:19:38;;;;;;;6.77;5.70;;;12.50;99.90;;;;;;5012045;28;20461;-75
2023/08/10 04:22:06;;;;;;;11.30;6.07;;;12.50;99.90;;;;;;5011846;28;20489;-75
2023/08/10 04:24:32;;;;;;;14.90;5.90;;;12.40;99.90;;;;;;5011349;28;20458;-75
2023/08/10 04:27:00;;;;;;;9.83;6.07;;;12.40;99.90;;;;;;5012730;28;20510;-75
2023/08/10 04:29:27;;;;;;;12.47;6.37;;;12.40;99.90;;;;;;5011416;28;20493;-75
2023/08/10 04:31:54;;;;;;;7.83;6.37;;;12.40;99.90;;;;;;5011682;28;20466;-75
2023/08/10 04:34:22;;;;;;;7.57;6.20;;;12.40;99.90;;;;;;5011859;28;20538;-75
2023/08/10 04:36:49;;;;;;;11.23;5.60;;;12.40;99.90;;;;;;5015215;28;20513;-75
2023/08/10 04:39:16;;;;;;;7.20;5.90;;;12.40;99.90;;;;;;5011496;28;20449;-75
2023/08/10 04:41:43;;;;;;;6.50;5.77;;;12.40;99.90;;;;;;5013935;28;20971;-75
2023/08/10 04:44:09;;;;;;;11.60;6.20;;;12.50;99.90;;;;;;5012190;28;20513;-75
2023/08/10 04:46:36;;;;;;;7.90;6.83;;;12.40;99.90;;;;;;5011349;28;20489;-76
2023/08/10 04:49:03;;;;;;;10.33;7.13;;;12.50;99.90;;;;;;5011462;28;20460;-75
2023/08/10 04:51:31;;;;;;;13.30;8.30;;;12.50;99.90;;;;;;5012176;28;20462;-76
2023/08/10 04:53:57;;;;;;;11.30;7.10;;;12.50;99.90;;;;;;5011346;28;20984;-75
2023/08/10 04:56:24;;;;;;;7.77;6.30;;;12.60;99.90;;;;;;5011646;28;20452;-75
2023/08/10 04:58:50;;;;;;;11.30;7.20;;;12.60;99.90;;;;;;5011493;28;20478;-76
2023/08/10 05:01:18;;;;;;;9.90;7.40;;;12.70;99.90;;;;;;5012310;28;20437;-76
2023/08/10 05:03:44;;;;;;;13.57;7.47;;;12.80;99.90;;;;;;5011250;28;20495;-76
2023/08/10 05:06:11;;;;;;;13.73;6.47;;;12.80;99.90;;;;;;5010998;28;20457;-75
2023/08/10 05:08:39;;;;;;;11.47;6.40;;;12.90;99.90;;;;;;5011091;28;20486;-75
2023/08/10 05:11:06;;;;;;;11.60;6.30;;;12.90;99.90;;;;;;5011786;28;20544;-76
2023/08/10 05:13:33;;;;;;;10.13;6.70;;;13.00;99.90;;;;;;5011114;28;20433;-75
2023/08/10 05:16:01;;;;;;;7.47;6.53;;;13.10;99.90;;;;;;5010304;28;20501;-76
2023/08/10 05:18:28;;;;;;;11.23;7.13;;;13.10;99.90;;;;;;5010902;28;20896;-76
2023/08/10 05:20:58;;;;;;;8.43;6.73;;;13.20;99.90;;;;;;5010803;28;20613;-76
2023/08/10 05:23:25;;;;;;;9.53;6.17;;;13.40;99.90;;;;;;5010713;28;20477;-74
2023/08/10 05:25:53;;;;;;;12.47;6.27;;;13.50;99.90;;;;;;5011177;28;20515;-74
2023/08/10 05:28:20;;;;;;;7.70;6.17;;;13.50;99.90;;;;;;5010946;28;20458;-73
2023/08/10 05:30:46;;;;;;;8.07;6.60;;;13.60;99.90;;;;;;5009952;28;20441;-73
2023/08/10 05:33:13;;;;;;;8.47;6.77;;;13.60;99.90;;;;;;5010635;28;21004;-73
2023/08/10 05:35:42;;;;;;;7.93;5.83;;;13.60;99.90;;;;;;5010459;28;21052;-73
2023/08/10 05:38:09;;;;;;;10.73;6.83;;;13.70;99.90;;;;;;5010287;28;20461;-70
2023/08/10 05:40:35;;;;;;;6.67;6.00;;;13.70;99.90;;;;;;5010533;28;20520;-69
2023/08/10 05:43:04;;;;;;;10.63;6.20;;;13.70;99.90;;;;;;5011330;28;20508;-70
2023/08/10 05:45:31;;;;;;;6.73;6.10;;;13.80;99.90;;;;;;5010024;28;20464;-69
2023/08/10 05:47:57;;;;;;;12.40;6.60;;;13.80;99.90;;;;;;5006345;28;20490;-70
2023/08/10 05:50:24;;;;;;;10.40;6.10;;;13.80;99.90;;;;;;5011430;28;20461;-70
2023/08/10 05:52:51;;;;;;;9.73;6.57;;;13.80;99.90;;;;;;5010576;28;20450;-70
2023/08/10 05:55:18;;;;;;;12.30;6.77;;;13.90;99.90;;;;;;5010798;28;20491;-70
2023/08/10 05:57:44;;;;;;;12.00;7.00;;;14.20;99.90;;;;;;5009328;28;20501;-70
2023/08/10 06:00:14;;;;;;;10.33;6.80;;;14.40;99.90;;;;;;5010235;28;20440;-69
2023/08/10 06:02:41;;;;;;;9.30;6.43;;;14.60;99.90;;;;;;5009813;28;21183;-70
2023/08/10 06:05:08;;;;;;;8.37;6.53;;;14.60;99.90;;;;;;5007306;28;20437;-70
2023/08/10 06:07:35;;;;;;;8.40;6.47;;;14.80;99.90;;;;;;5010560;28;20874;-70
2023/08/10 06:10:01;;;;;;;9.47;6.27;;;14.90;99.90;;;;;;5010185;28;20518;-70
2023/08/10 06:12:28;;;;;;;10.43;5.97;;;15.20;99.90;;;;;;5005664;28;20489;-69
2023/08/10 06:14:54;;;;;;;7.83;7.03;;;15.60;99.90;;;;;;5010182;28;20483;-70
2023/08/10 06:17:22;;;;;;;7.10;5.93;;;15.80;99.90;;;;;;5010399;28;20456;-69
2023/08/10 06:19:52;;;;;;;8.50;6.07;;;16.20;99.90;;;;;;5010282;28;20477;-70
2023/08/10 06:22:19;;;;;;;9.23;6.10;;;16.50;99.90;;;;;;5010139;28;20997;-70
2023/08/10 06:24:46;;;;;;;6.63;6.00;;;16.70;99.90;;;;;;5009538;28;20807;-69
2023/08/10 06:27:13;;;;;;;7.77;6.20;;;16.80;99.90;;;;;;5015178;28;20489;-70
2023/08/10 06:29:40;;;;;;;10.03;6.03;;;16.90;99.90;;;;;;5009076;28;20532;-70
2023/08/10 06:32:07;;;;;;;8.03;6.60;;;17.20;99.90;;;;;;5012149;28;20458;-70
2023/08/10 06:34:35;;;;;;;8.43;5.70;;;17.20;99.90;;;;;;5010614;28;20454;-70
2023/08/10 06:37:02;;;;;;;6.60;5.87;;;17.30;99.90;;;;;;5010172;28;20454;-70
2023/08/10 06:39:29;;;;;;;13.07;5.00;;;17.50;99.90;;;;;;5008894;28;20981;-71
2023/08/10 06:41:57;;;;;;;8.97;5.87;;;17.60;99.90;;;;;;5009854;28;20468;-71
2023/08/10 06:44:23;;;;;;;10.30;5.53;;;17.70;99.90;;;;;;5010761;28;20483;-71
2023/08/10 06:46:50;;;;;;;12.77;5.77;;;17.90;99.90;;;;;;5009901;28;20497;-70
2023/08/10 06:49:21;;;;;;;10.13;5.13;;;18.00;99.90;;;;;;5009812;28;21114;-68
2023/08/10 06:51:50;;;;;;;5.80;5.20;;;18.20;99.90;;;;;;5010103;28;20462;-69
2023/08/10 06:54:17;;;;;;;7.57;5.53;;;18.00;99.90;;;;;;5009569;28;20980;-68
2023/08/10 06:56:44;;;;;;;8.53;5.63;;;17.80;99.90;;;;;;5009255;28;20446;-69
2023/08/10 06:59:11;;;;;;;10.20;6.03;;;17.70;99.90;;;;;;5010152;28;20486;-68
2023/08/10 07:01:38;;;;;;;11.50;6.20;;;17.60;99.90;;;;;;5009716;28;20973;-68
2023/08/10 07:04:05;;;;;;;7.93;6.50;;;17.50;99.90;;;;;;5009906;28;20537;-69
2023/08/10 07:06:31;;;;;;;8.93;5.13;;;17.50;99.90;;;;;;5009221;28;20556;-68
2023/08/10 07:08:59;;;;;;;5.87;5.07;;;17.50;99.90;;;;;;5008973;28;21005;-68
2023/08/10 07:11:26;;;;;;;6.60;5.20;;;17.60;99.90;;;;;;5010049;28;20466;-68
2023/08/10 07:13:53;;;;;;;6.17;5.33;;;17.60;99.90;;;;;;5009895;28;20893;-68
2023/08/10 07:16:19;;;;;;;12.50;5.80;;;17.50;99.90;;;;;;5009644;28;20954;-68
2023/08/10 07:18:46;;;;;;;7.07;5.07;;;17.60;99.90;;;;;;5008743;28;20474;-68
2023/08/10 07:21:13;;;;;;;11.40;5.47;;;17.80;99.90;;;;;;5008993;28;20429;-67
2023/08/10 07:23:40;;;;;;;6.70;5.50;;;18.20;99.90;;;;;;5009578;28;20451;-67
2023/08/10 07:26:08;;;;;;;7.00;4.60;;;18.50;99.90;;;;;;5009756;28;20462;-67
2023/08/10 07:28:35;;;;;;;15.10;5.53;;;18.60;99.90;;;;;;5009460;28;20490;-67
2023/08/10 07:31:02;;;;;;;10.53;4.83;;;18.80;99.90;;;;;;5008440;28;20467;-67
2023/08/10 07:33:29;;;;;;;5.63;4.70;;;18.70;99.90;;;;;;5009471;28;21020;-68
2023/08/10 07:35:58;;;;;;;5.67;5.17;;;18.70;99.90;;;;;;5009274;28;20512;-69
2023/08/10 07:38:25;;;;;;;9.03;5.60;;;18.70;99.90;;;;;;5008342;28;20484;-68
2023/08/10 07:40:52;;;;;;;6.47;5.40;;;18.80;99.90;;;;;;5008790;28;20459;-67
2023/08/10 07:43:21;;;;;;;7.83;5.70;;;18.70;99.90;;;;;;5007825;28;20453;-68
2023/08/10 07:45:48;;;;;;;7.33;5.23;;;18.90;99.90;;;;;;5008242;28;20470;-67
2023/08/10 07:48:14;;;;;;;8.17;5.57;;;19.00;99.90;;;;;;5008854;28;20576;-67
2023/08/10 07:50:41;;;;;;;5.67;5.17;;;19.10;99.90;;;;;;5008742;28;20481;-67
2023/08/10 07:53:08;;;;;;;8.93;5.40;;;19.20;99.90;;;;;;5009149;28;20462;-68
2023/08/10 07:55:34;;;;;;;12.33;5.17;;;19.20;99.90;;;;;;5008514;28;20800;-69
2023/08/10 07:58:01;;;;;;;9.20;5.50;;;19.20;99.90;;;;;;5008446;28;20510;-68
2023/08/10 08:00:29;;;;;;;6.73;4.80;;;19.30;99.90;;;;;;5007771;28;20462;-67
2023/08/10 08:02:55;;;;;;;7.93;5.17;;;19.50;99.90;;;;;;5008920;28;20447;-67
2023/08/10 08:05:22;;;;;;;7.00;5.03;;;19.70;99.90;;;;;;5008711;28;20887;-68
2023/08/10 08:07:49;;;;;;;6.90;4.93;;;20.00;99.90;;;;;;5008407;28;20556;-68
2023/08/10 08:10:17;;;;;;;6.17;5.07;;;20.20;99.90;;;;;;5007976;28;21047;-68
2023/08/10 08:12:43;;;;;;;16.83;5.37;;;20.20;99.90;;;;;;5008082;28;20516;-68
2023/08/10 08:15:11;;;;;;;5.10;4.50;;;20.30;99.90;;;;;;5008139;28;20453;-67
2023/08/10 08:18:15;;;;;;;5.83;5.00;;;20.40;99.90;;;;;;5008583;28;20450;-68
2023/08/10 08:20:43;;;;;;;7.90;4.30;;;20.70;99.90;;;;;;5007353;28;20454;-68
2023/08/10 08:23:10;;;;;;;6.13;4.80;;;21.10;99.90;;;;;;5006236;28;20872;-68
2023/08/10 08:25:36;;;;;;;6.37;5.50;;;21.30;99.90;;;;;;5007604;28;20524;-69
2023/08/10 08:28:03;;;;;;;8.03;4.17;;;21.50;99.90;;;;;;5008049;28;20498;-69
2023/08/10 08:30:30;;;;;;;7.63;4.30;;;21.90;99.90;;;;;;5006885;28;20520;-68
2023/08/10 08:32:57;;;;;;;11.73;4.33;;;22.30;99.90;;;;;;5008100;28;20462;-68
2023/08/10 08:35:24;;;;;;;9.07;4.00;;;22.70;99.90;;;;;;5007623;28;20459;-68
2023/08/10 08:37:53;;;;;;;5.50;4.57;;;22.90;99.90;;;;;;5008355;28;20465;-68
2023/08/10 08:40:20;;;;;;;7.63;4.43;;;22.80;99.90;;;;;;5007791;28;20482;-68
2023/08/10 08:42:49;;;;;;;14.43;4.47;;;22.50;99.90;;;;;;5008148;28;20462;-68
2023/08/10 08:45:16;;;;;;;4.30;3.80;;;22.50;99.90;;;;;;5006860;28;20493;-69
2023/08/10 08:47:44;;;;;;;7.20;4.77;;;22.70;99.90;;;;;;5007499;28;20822;-69
2023/08/10 08:50:11;;;;;;;4.27;3.57;;;22.80;99.90;;;;;;5006065;28;20480;-68
2023/08/10 08:52:39;;;;;;;7.93;4.30;;;22.90;99.90;;;;;;5008228;28;20529;-68
2023/08/10 08:55:10;;;;;;;8.77;4.37;;;23.00;99.90;;;;;;5008006;28;21160;-65
2023/08/10 08:57:38;;;;;;;6.63;3.60;;;23.20;99.90;;;;;;5006681;28;20454;-68
2023/08/10 09:00:06;;;;;;;6.80;3.60;;;23.40;99.90;;;;;;5006338;28;21217;-69
2023/08/10 09:02:33;;;;;;;4.93;3.53;;;23.40;99.90;;;;;;5007217;28;20458;-68
2023/08/10 09:05:00;;;;;;;8.60;3.70;;;23.30;99.90;;;;;;5007119;28;20462;-66
2023/08/10 09:07:27;;;;;;;4.93;4.07;;;23.20;99.90;;;;;;5007760;28;20497;-67
2023/08/10 09:09:54;;;;;;;5.90;3.40;;;22.90;99.90;;;;;;5005447;28;20486;-66
2023/08/10 09:12:33;;;;;;;4.97;2.90;;;22.70;99.90;;;;;;5007142;28;20509;-66
2023/08/10 09:15:02;;;;;;;7.40;3.47;;;23.00;99.90;;;;;;5006693;28;20454;-67
2023/08/10 09:17:29;;;;;;;8.03;3.50;;;23.20;99.90;;;;;;5007415;28;20443;-68
2023/08/10 09:19:56;;;;;;;5.27;3.37;;;23.20;99.90;;;;;;5007087;28;20532;-67
2023/08/10 09:22:33;;;;;;;7.50;3.20;;;23.30;99.90;;;;;;5007443;28;20504;-67
2023/08/10 09:24:59;;;;;;;4.33;3.30;;;23.60;99.90;;;;;;5007694;28;20453;-67
2023/08/10 09:27:27;;;;;;;5.13;3.17;;;23.60;99.90;;;;;;5006225;28;21014;-67
2023/08/10 09:29:58;;;;;;;5.00;3.03;;;23.60;99.90;;;;;;5006220;28;20488;-67
2023/08/10 09:32:25;;;;;;;10.17;3.77;;;23.70;99.90;;;;;;5006661;28;20466;-67
2023/08/10 09:34:52;;;;;;;5.37;3.40;;;23.80;99.90;;;;;;5007174;28;20536;-67
2023/08/10 09:37:19;;;;;;;4.23;3.17;;;23.90;99.90;;;;;;5007174;28;20477;-67
2023/08/10 09:39:46;;;;;;;7.00;2.70;;;24.10;99.90;;;;;;5006815;28;20478;-67
2023/08/10 09:42:12;;;;;;;3.87;2.93;;;24.50;99.90;;;;;;5006513;28;20446;-67
2023/08/10 09:44:44;;;;;;;5.67;2.73;;;24.90;99.90;;;;;;5007571;28;20482;-67
2023/08/10 09:47:12;;;;;;;5.20;2.80;;;25.30;99.90;;;;;;5006291;28;20489;-67
2023/08/10 09:49:40;;;;;;;5.63;2.73;;;25.40;99.90;;;;;;5006765;28;20489;-67
2023/08/10 09:52:07;;;;;;;3.40;2.10;;;25.30;99.90;;;;;;5006398;28;20451;-67
2023/08/10 09:54:37;;;;;;;4.17;2.00;;;25.30;99.90;;;;;;5007388;28;20451;-67
2023/08/10 09:57:04;;;;;;;4.87;2.37;;;25.40;99.90;;;;;;5006300;28;20957;-67
2023/08/10 09:59:31;;;;;;;2.90;1.97;;;25.30;99.90;;;;;;5006215;28;20482;-66
2023/08/10 10:01:58;;;;;;;3.20;1.80;;;25.40;99.90;;;;;;5009493;28;20454;-67
2023/08/10 10:04:28;;;;;;;3.50;2.10;;;25.40;99.90;;;;;;5010825;28;20553;-67
2023/08/10 10:06:57;;;;;;;5.23;2.60;;;25.50;99.90;;;;;;5009435;28;20450;-67
2023/08/10 10:09:24;;;;;;;3.20;2.00;;;25.70;99.90;;;;;;5009459;28;20516;-67
2023/08/10 10:11:52;;;;;;;4.10;2.00;;;25.90;99.90;;;;;;5010380;28;20969;-67
2023/08/10 10:14:20;;;;;;;2.50;2.03;;;26.00;99.90;;;;;;5010308;28;20457;-67
2023/08/10 10:16:47;;;;;;;4.67;2.07;;;25.80;99.90;;;;;;5010437;28;20474;-67
2023/08/10 10:19:14;;;;;;;5.10;3.00;;;25.70;99.90;;;;;;5010077;28;20474;-67
2023/08/10 10:21:42;;;;;;;5.97;2.23;;;25.50;99.90;;;;;;5010853;28;20508;-67
2023/08/10 10:24:12;;;;;;;2.33;2.07;;;25.40;99.90;;;;;;5010025;28;20465;-67
2023/08/10 10:26:39;;;;;;;6.07;1.80;;;25.70;99.90;;;;;;5009870;28;20520;-67
2023/08/10 10:29:13;;;;;;;4.00;1.70;;;25.80;99.90;;;;;;5010300;28;20501;-67
2023/08/10 10:31:39;;;;;;;2.10;1.90;;;25.90;99.90;;;;;;5010774;28;20480;-67
2023/08/10 10:34:06;;;;;;;3.20;1.80;;;26.10;99.90;;;;;;5010620;28;21292;-67
2023/08/10 10:36:33;;;;;;;5.60;1.93;;;26.10;99.90;;;;;;5009895;28;20454;-67
2023/08/10 10:39:07;;;;;;;5.83;2.07;;;26.30;99.90;;;;;;5010137;28;20478;-67
2023/08/10 10:41:35;;;;;;;2.10;1.90;;;25.80;99.90;;;;;;5010296;28;20456;-67
2023/08/10 10:44:04;;;;;;;6.70;2.17;;;26.00;99.90;;;;;;5010104;28;20465;-67
2023/08/10 10:46:40;;;;;;;3.40;2.40;;;26.20;99.90;;;;;;5010239;28;21175;-67
2023/08/10 10:49:09;;;;;;;5.50;2.27;;;26.30;99.90;;;;;;5010007;28;20492;-66
2023/08/10 10:51:48;;;;;;;3.27;2.00;;;26.40;99.90;;;;;;5009609;28;20458;-67
2023/08/10 10:54:16;;;;;;;2.30;1.93;;;26.60;99.90;;;;;;5009098;28;20504;-67
2023/08/10 10:56:43;;;;;;;3.17;1.97;;;26.20;99.90;;;;;;5008890;28;20513;-66
2023/08/10 10:59:09;;;;;;;3.57;2.03;;;26.00;99.90;;;;;;5009460;28;20528;-67
2023/08/10 11:01:36;;;;;;;7.63;2.03;;;26.20;99.90;;;;;;5009279;28;20485;-67
2023/08/10 11:04:06;;;;;;;2.30;1.87;;;26.60;99.90;;;;;;5008958;28;20839;-67
2023/08/10 11:06:37;;;;;;;3.43;1.70;;;26.90;99.90;;;;;;5009848;28;20529;-67
2023/08/10 11:09:07;;;;;;;4.17;1.90;;;27.30;99.90;;;;;;5009266;28;20536;-67
2023/08/10 11:11:35;;;;;;;4.90;1.83;;;27.60;99.90;;;;;;5009219;28;20466;-68
2023/08/10 11:14:02;;;;;;;10.43;2.00;;;27.80;99.90;;;;;;5008774;28;20512;-67
2023/08/10 11:16:35;;;;;;;3.27;1.70;;;27.90;99.90;;;;;;5010067;28;20493;-67
2023/08/10 11:19:09;;;;;;;6.17;1.90;;;28.10;99.90;;;;;;5009877;28;20462;-67
2023/08/10 11:21:38;;;;;;;2.43;2.23;;;28.30;99.90;;;;;;5009978;28;20473;-67
2023/08/10 11:24:07;;;;;;;2.67;2.10;;;28.00;99.20;;;;;;5010145;28;21237;-67
2023/08/10 11:26:36;;;;;;;3.87;1.80;;;27.60;99.90;;;;;;5009758;28;20946;-67
2023/08/10 11:29:03;;;;;;;4.13;2.10;;;27.20;99.90;;;;;;5009214;28;20493;-66
2023/08/10 11:31:37;;;;;;;3.67;2.30;;;27.30;99.80;;;;;;5009595;28;20557;-67
2023/08/10 11:34:18;;;;;;;2.50;1.93;;;27.50;99.90;;;;;;5009458;28;20478;-67
2023/08/10 11:36:45;;;;;;;2.17;1.73;;;27.80;99.90;;;;;;5009613;28;20442;-67
2023/08/10 11:39:11;;;;;;;1.90;1.73;;;28.10;98.40;;;;;;5009091;28;20489;-67
2023/08/10 11:41:41;;;;;;;3.33;1.90;;;27.70;99.80;;;;;;5009292;28;20434;-67
2023/08/10 11:44:08;;;;;;;2.10;1.80;;;27.90;99.90;;;;;;5009276;28;20458;-67
2023/08/10 11:46:35;;;;;;;3.97;2.30;;;28.20;98.10;;;;;;5007429;28;20509;-67
2023/08/10 11:49:02;;;;;;;2.83;1.93;;;28.50;97.00;;;;;;5008798;28;20489;-68
2023/08/10 11:51:32;;;;;;;2.10;1.90;;;28.90;97.50;;;;;;5008477;28;21158;-67
2023/08/10 11:53:59;;;;;;;3.40;1.60;;;29.00;96.20;;;;;;5008441;28;20458;-68
2023/08/10 11:56:32;;;;;;;2.43;1.70;;;29.10;96.90;;;;;;5009057;28;20524;-67
2023/08/10 11:59:11;;;;;;;3.73;1.70;;;29.50;97.50;;;;;;5009112;28;20482;-66
2023/08/10 12:01:45;;;;;;;4.67;1.90;;;29.80;96.10;;;;;;5008289;28;20891;-67
2023/08/10 12:04:12;;;;;;;7.00;1.70;;;29.60;95.60;;;;;;5007765;28;20508;-66
2023/08/10 12:06:42;;;;;;;1.93;1.80;;;29.80;95.00;;;;;;5006776;28;20474;-66
2023/08/10 12:09:11;;;;;;;5.07;1.80;;;30.00;93.70;;;;;;5008203;28;20513;-66
2023/08/10 12:11:37;;;;;;;4.70;2.90;;;30.40;91.90;;;;;;5008676;28;20545;-67
2023/08/10 12:14:07;;;;;;;2.90;1.63;;;30.60;91.10;;;;;;5009161;28;20461;-66
2023/08/10 12:16:34;;;;;;;1.80;1.70;;;30.70;92.20;;;;;;5008779;28;20867;-66
2023/08/10 12:19:01;;;;;;;4.77;1.97;;;30.70;88.70;;;;;;5008037;28;20525;-67
2023/08/10 12:21:27;;;;;;;6.50;1.73;;;30.60;89.40;;;;;;5008099;28;20454;-67
2023/08/10 12:23:55;;;;;;;2.23;1.77;;;30.70;88.20;;;;;;5008047;28;20520;-67
2023/08/10 12:26:21;;;;;;;1.93;1.77;;;30.80;87.60;;;;;;5008352;28;20477;-67
2023/08/10 12:28:48;;;;;;;2.37;1.67;;;30.90;85.20;;;;;;5007924;28;20586;-67
2023/08/10 12:31:16;;;;;;;1.90;1.50;;;30.50;82.70;;;;;;5007300;28;20470;-67
2023/08/10 12:33:44;;;;;;;4.83;2.30;;;30.40;84.40;;;;;;5008328;28;20461;-67
2023/08/10 12:36:11;;;;;;;2.97;1.90;;;30.20;85.80;;;;;;5008160;28;20570;-67
2023/08/10 12:38:38;;;;;;;4.13;1.80;;;30.20;83.30;;;;;;5007456;28;20547;-66
2023/08/10 12:41:05;;;;;;;2.30;1.70;;;30.10;79.70;;;;;;5007967;28;20541;-67
2023/08/10 12:43:31;;;;;;;4.20;1.53;;;30.10;81.60;;;;;;5007847;28;20476;-67
2023/08/10 12:45:58;;;;;;;2.80;1.87;;;30.20;82.00;;;;;;5007832;28;20490;-67
2023/08/10 12:48:26;;;;;;;3.83;1.93;;;30.60;83.30;;;;;;5007652;28;20536;-67